Mamadou Soumare

Olheiro-Chefe - Onze Createurs
5 Dez 2027
Domingo
Processo

Personalidade

Adaptabilidade (19) Ambição (17) Controvérsia (1) Lealdade (14) Pressão (18) Profissionalismo (1) Espírito Esportivo (4) Temperamento (1)

Perfil

Estilo de Treinamento Democrático
Licença Continental B
Determinação 5
Gestão de Pessoas 7
Motivação 2
Disciplina 8
Satisfação no Trabalho
100%
Fadiga
0%
Função Olheiro-Chefe
Salário 12.0K p/s
Contrato 14.03.2030

Desempenho

Comportamento Bom
Eficácia do Treinamento
26%
Desenvolvimento do Jogador
30%
Prevenção de Lesões
25%
Implementação Tática
15%

Eventos Recentes

Participou de uma reunião de recrutamento agora
Participou de uma reunião de recrutamento agora
Participou de uma reunião de recrutamento agora
Participou de uma reunião de recrutamento agora
Participou de uma reunião de recrutamento agora
Avaliou um jogador agora
Avaliou um jogador agora
Avaliou um jogador agora

Monitorando agora

246
Jogador Clube Status Habilidade Confiança Observado Última observação Último voto
Alfred Emoni Bandari Ativo 97 / 92 40% 4 04.12.2027 -
Usman Fahad Kano Pillars Ativo 92 / 94 40% 3 04.12.2027 -
Ifeanyi Assurance Rangers International Ativo 90 / 100 40% 5 03.12.2027 -
Musa Masika Mathare United Ativo 72 / 93 40% 2 03.12.2027 -
Lucky Emmanuel Shooting Stars Ativo 98 / 87 40% 5 02.12.2027 -
Ezekiel Edidiong Enyimba Ativo 85 / 98 40% 3 02.12.2027 -
Ben Stanley Omondi Gor Mahia Ativo 88 / 74 40% 2 01.12.2027 -
Stephen Mbulere Bwire Kariobangi Sharks Ativo 58 / 58 40% 1 01.12.2027 -
Josephat Lopaga Kakamega Homeboyz Ativo 93 / 82 40% 5 30.11.2027 -
Óscar Gil OH Leuven Ativo 119 / 139 40% 1 30.11.2027 -
Enock Morrison Gor Mahia Ativo 93 / 94 40% 3 28.11.2027 -
Dylan Dassy Waasland-Beveren Ativo 87 / 100 40% 1 28.11.2027 -
Joseph Waithira Muranga Seal Ativo 70 / 79 40% 1 26.11.2027 -
Igbunu Evwierhurhoma Warri Wolves Ativo 79 / 95 40% 2 21.11.2027 -
Ghali Falke Shooting Stars Ativo 88 / 96 40% 4 21.11.2027 -
Sunday Aniebet Enyimba Ativo 99 / 103 40% 5 19.11.2027 -
Japheth Lihanda Sofapaka Ativo 57 / 79 40% 1 19.11.2027 -
Faiz Opande Kariobangi Sharks Ativo 87 / 90 40% 1 18.11.2027 -
Abubakar Taheer Shooting Stars Ativo 100 / 93 40% 3 15.11.2027 -
Christopher Richards Enyimba Ativo 99 / 102 40% 4 13.11.2027 -
Christopher Raila Bidco United Ativo 64 / 82 40% 2 13.11.2027 -
Chidiebere Nwobodo Rangers International Ativo 92 / 108 40% 6 12.11.2027 -
Kelly Madada AFC Leopards Ativo 93 / 74 40% 2 12.11.2027 -
Emmanuel Ndubueze Shooting Stars Ativo 95 / 96 40% 2 11.11.2027 -
Titus Achesa Sofapaka Ativo 89 / 93 40% 1 11.11.2027 -
James Mazembe Shabana Ativo 80 / 79 40% 2 05.11.2027 -
Eric Omondi KCB Ativo 92 / 87 40% 3 05.11.2027 -
Victor Mbaoma Tusker Ativo 84 / 95 40% 3 04.11.2027 -
Joel Ezra Enyimba Ativo 92 / 106 40% 1 03.11.2027 -
Chinedu Nwosu Bendel Insurance Ativo 89 / 93 40% 1 03.11.2027 -
Benson Omalla Nairobi United Ativo 97 / 87 40% 2 02.11.2027 -
Cliff Oruko Tusker Ativo 94 / 64 40% 2 02.11.2027 -
Bryan Michira Shabana Ativo 96 / 91 40% 2 01.11.2027 -
Dennis Munyovi Muranga Seal Ativo 64 / 69 40% 1 30.10.2027 -
Musa Malik Ikorodu City Ativo 100 / 102 40% 1 23.10.2027 -
Mustafa Kizza Nairobi United Ativo 72 / 95 40% 2 20.10.2027 -
Aminu Mohammed Kano Pillars Ativo 82 / 96 40% 1 19.10.2027 -
William Wadri Bandari Ativo 85 / 65 40% 2 16.10.2027 -
Ahmed Yahaya Kun Khalifat Ativo 69 / 85 40% 1 16.10.2027 -
Tega Ebetomane Kun Khalifat Ativo 78 / 83 40% 1 13.10.2027 -
Tyson Otieno AFC Leopards Ativo 92 / 88 40% 1 10.10.2027 -
Patrick Otieno KCB Ativo 77 / 75 40% 2 08.10.2027 -
Anthony Omaka Barau Ativo 98 / 92 40% 1 08.10.2027 -
Idris Saidu Barau Ativo 96 / 95 40% 1 07.10.2027 -
Vincent Wasambo Posta Rangers Ativo 65 / 73 40% 3 06.10.2027 -
Daniel Kakai Bidco United Ativo 59 / 63 40% 1 05.10.2027 -
Dramane Traoré AS Korofina Ativo 98 / 105 40% 9 28.09.2027 -
Peter Thiong'o Kakamega Homeboyz Ativo 90 / 84 40% 1 27.09.2027 -
Yves Allarabaye Foullah Edifice Ativo 68 / 83 40% 1 27.09.2027 -
Hassan Beja AFC Leopards Ativo 87 / 78 40% 1 22.09.2027 -
Sven Yidah APS Bomet Ativo 71 / 75 40% 1 20.09.2027 -
Moussakoye Diallo Stade Malien Ativo 122 / 100 40% 8 19.09.2027 -
Patillah Omoto Kariobangi Sharks Ativo 89 / 89 40% 1 19.09.2027 -
Esaie Djikoloum CotonTchad Ativo 86 / 76 40% 3 17.09.2027 -
Mohamed El Ouardi Renaissance Ativo 87 / 90 40% 3 15.09.2027 -
Olawale Emmanuel Niger Tornadoes Ativo 97 / 97 40% 1 15.09.2027 -
Yaya Konaté AS Police Ativo 81 / 76 40% 3 14.09.2027 -
Joseph Atule Barau Ativo 100 / 90 40% 3 14.09.2027 -
Samba Diallo Real Bamako Ativo 93 / 91 40% 7 13.09.2027 -
Yassine Abdelali Renaissance Ativo 100 / 101 40% 1 13.09.2027 -
Salim Bah Djoliba Ativo 110 / 106 40% 4 12.09.2027 -
Modibo Sissoko Stade Malien Ativo 108 / 99 40% 1 10.09.2027 -
Yannick Saleh Aiglons Ativo 92 / 94 40% 1 07.09.2027 -
Onyia Henry Bendel Insurance Ativo 85 / 83 40% 1 05.09.2027 -
Abdoulaye Diarra Stade Malien Ativo 96 / 113 40% 7 04.09.2027 -
Youssef Dalouzi Renaissance Rejeitado 91 / 97 40% 6 02.09.2027 Rejeitar
Hernest Malonga Kenya Police Ativo 81 / 93 40% 4 01.09.2027 -
Erick Balecho Bandari Ativo 82 / 83 40% 1 01.09.2027 -
Samou Sidibé Djoliba Ativo 92 / 89 40% 5 28.08.2027 -
Cheickna Samaké Djoliba Ativo 104 / 99 40% 3 28.08.2027 -
Benjamin Ngakoutou Galactik Ativo 74 / 62 40% 1 27.08.2027 -
Chimobi Igwilo Rangers International Ativo 86 / 103 40% 1 24.08.2027 -
Olasunkanmi Quadri Enyimba Ativo 96 / 88 40% 1 24.08.2027 -
Salomon Chigoziem Nasarawa United Ativo 92 / 85 40% 2 23.08.2027 -
Osée Natoyoum Gazelle Perdido 80 / 69 40% 2 22.08.2027 -
Dilane Ekongolo Victoria United Ativo 102 / 95 40% 1 20.08.2027 -
Samuel Ayanrinde Kenya Police Ativo 76 / 93 40% 1 17.08.2027 -
Will Hondermarck Binga Ativo 99 / 86 40% 2 16.08.2027 -
Amza Moubarack Bandari Ativo 72 / 84 40% 1 13.08.2027 -
Zoumana Simpara Djoliba Rejeitado 106 / 99 40% 1 13.08.2027 Mais informações
Abdulsalam Abdulsalam Inter Allies Ativo 95 / 95 40% 1 12.08.2027 -
Mandala Konté Stade Malien Ativo 104 / 97 40% 3 11.08.2027 -
Yann Bodiger Ceuta Ativo 121 / 111 40% 1 10.08.2027 -
Jordan Ayew Leicester City Ativo 114 / 123 40% 1 09.08.2027 -
Kallum Cesay Salford City Ativo 105 / 94 40% 3 08.08.2027 -
Moussa Aoudou Dynamo Douala Ativo 79 / 82 40% 2 06.08.2027 -
Simone Ianesi Pianese Ativo 98 / 111 40% 5 04.08.2027 -
Hasaacas Ativo 67 / 76 40% 5 02.08.2027 -
Rhys Chadwick Burton Albion Ativo 112 / 115 40% 2 31.07.2027 -
Moussa Ballo Afrique Foot Elite Ativo 104 / 108 40% 4 27.07.2027 -
Naman Doumbia US Forces Armees Ativo 68 / 72 55% 1 26.07.2027 -
Félix Djoubairou Renaissance Ativo 76 / 87 40% 1 26.07.2027 -
Mathys Jean Marie Oliveirense Ativo 114 / 106 40% 2 25.07.2027 -
Aaron Drinan Swindon Town Ativo 115 / 117 40% 2 25.07.2027 -
Simone Auriletto Renate Ativo 111 / 98 40% 1 23.07.2027 -
Djibril Coulibaly Real Bamako Ativo 102 / 96 67% 12 21.07.2027 Observar
Destiny Efosa Egharevba Picerno Ativo 97 / 114 40% 3 21.07.2027 -
Appolinaire Djingabeye Renaissance Perdido 77 / 80 40% 2 18.07.2027 -
Jonah James Inter Allies Ativo 78 / 89 40% 5 16.07.2027 -
Ousmane Coulibaly Stade Malien Ativo 108 / 106 40% 1 16.07.2027 -
James Furlong Walsall Ativo 105 / 120 40% 1 14.07.2027 -
Akin Odimayo Crawley Town Ativo 107 / 83 40% 1 10.07.2027 -
George Thomson Harrogate Town Ativo 75 / 102 40% 2 07.07.2027 Mais informações
Christian Nuhu Wa All Stars Ativo 89 / 95 40% 1 01.07.2027 -
Rasco Abassah Bechem United Ativo 73 / 74 40% 1 28.06.2027 -
Ellis Taylor Harrogate Town Ativo 89 / 90 40% 2 27.06.2027 -
Courtney Clarke Walsall Ativo 111 / 85 40% 1 27.06.2027 -
Dion Pereira Crawley Town Ativo 81 / 80 40% 1 26.06.2027 -
Aly Keïta Djoliba Ativo 95 / 88 40% 2 25.06.2027 -
Nathan Mbala FC Metz Ativo 88 / 102 40% 4 25.06.2027 -
Zakaria Ajoughlal Renaissance Ativo 101 / 101 40% 4 24.06.2027 -
Pasquale Riccardi Siracusa Ativo 97 / 87 40% 2 24.06.2027 -
Moubarak Djibrine AS DGSSIE Ativo 74 / 75 40% 2 23.06.2027 -
Aliou Diakité Real Bamako Ativo 103 / 101 40% 2 22.06.2027 -
Saagui Dzenyagha Dynamo Douala Ativo 83 / 86 40% 1 18.06.2027 -
Jamal Lowe Sheffield Wednesday Ativo 122 / 108 40% 1 15.06.2027 -
Nassar Koulelengar AS PSI Perdido 81 / 76 40% 1 13.06.2027 -
Rayan Souici Bourg-Peronnas Ativo 98 / 101 40% 2 10.06.2027 -
Jah-Mason Telusson Olympique de Marseille Ativo 100 / 106 40% 2 08.06.2027 -
Félix Kamaté Stade Malien Ativo 101 / 90 40% 2 07.06.2027 Mais informações
Clauvis Carvalho FC Diarra Ativo 69 / 83 55% 1 01.06.2027 -
George Thomson Harrogate Town Perdido 104 / 79 40% 1 31.05.2027 Mais informações
Abdoul Salam Dembélé Stade Malien Ativo 90 / 98 40% 2 30.05.2027 -
Lamine Diakité Djoliba Ativo 91 / 102 40% 5 30.05.2027 -
John Makwatta Mathare United Ativo 66 / 85 40% 1 29.05.2027 -
Jude Soonsup-Bell Oldham Athletic Ativo 91 / 103 40% 4 28.05.2027 -
Nazif Inoussa Benfica Ativo 83 / 85 40% 1 27.05.2027 -
Yann Gboua Standard Liege Ativo 82 / 108 40% 3 25.05.2027 -
Conor McAleny Harrogate Town Ativo 91 / 91 40% 1 24.05.2027 -
Taddeus Nkeng AS Police Ativo 95 / 89 40% 1 23.05.2027 -
Nolhan Assafoua MC El Bayadh Ativo 76 / 71 40% 1 23.05.2027 -
Kita Foullah Edifice Ativo 79 / 75 40% 1 20.05.2027 -
Saliou Guindo Real Bamako Ativo 108 / 91 40% 3 14.05.2027 -
Tony Mendy AJ Auxerre Ativo 93 / 88 40% 1 13.05.2027 -
Aboubacar Sidibé Sochaux Ativo 88 / 90 40% 3 11.05.2027 -
Oumar Youssouf Renaissance Ativo 60 / 58 40% 2 10.05.2027 -
Hassan Tokindang AS Algoy Ativo 61 / 58 40% 1 09.05.2027 -
Abdoul Karim Traoré OH Leuven Ativo 79 / 98 40% 1 01.05.2027 -
Malick Berthé AS Police Ativo 93 / 95 40% 3 30.04.2027 -
Sunday Megwo Abia Warriors Ativo 97 / 96 40% 2 29.04.2027 -
Laurent Nainggolan Racing Genk Ativo 129 / 133 40% 1 24.04.2027 -
Kyan Vaesen OH Leuven Ativo 100 / 98 40% 1 24.04.2027 -
Innocent Mbairamadji Foullah Edifice Ativo 68 / 64 40% 1 19.04.2027 -
Hervé Boua Dié Valenciennes Ativo 73 / 94 40% 2 18.04.2027 -
Ebroni Gnoan Le Havre AC Ativo 98 / 95 40% 1 18.04.2027 -
Dilan Neves Benfica Ativo 82 / 85 40% 1 13.04.2027 -
Patrick Schmidt Tarxien Rainbows Ativo 91 / 95 40% 2 12.04.2027 -
Mathys Houdayer Stade Lavallois Ativo 82 / 85 40% 2 11.04.2027 -
Yeangel Montero Naxxar Lions Ativo 108 / 117 40% 6 10.04.2027 -
Mahamat Harouna Elect Sport Ativo 82 / 77 40% 2 08.04.2027 -
Anas Yusuf JS Saoura Ativo 91 / 84 40% 1 07.04.2027 -
Frank Abora Duku Heart of Lions Ativo 68 / 68 40% 1 07.04.2027 -
Víctor Guzmán Sporting CP Ativo 86 / 107 40% 1 02.04.2027 -
Néhémie Lurika Olympique Lyonnais Ativo 96 / 106 40% 1 01.04.2027 -
Siaka Diaby Stade Malien Ativo 92 / 107 40% 4 28.03.2027 -
Junior Trésor Bembong Fauve Azur Elite Ativo 82 / 67 40% 1 28.03.2027 -
Moussa Diallo US Forces Armees Ativo 67 / 65 40% 2 23.03.2027 -
Fernandinho Sliema Wanderers Ativo 75 / 91 40% 1 23.03.2027 -
Pedro Cejas Zabbar St. Patrick Ativo 90 / 91 40% 3 22.03.2027 -
Alex Tanque Valletta Ativo 75 / 87 40% 1 21.03.2027 -
Damir Céter Hamrun Spartans Ativo 109 / 112 40% 2 16.03.2027 -
Mayron de Almeida Monopoli Ativo 85 / 92 40% 1 12.03.2027 -
Zayd El Kandoussi Mouscron Ativo 94 / 109 40% 2 07.03.2027 -
Jean Simplice Mbang Stade Renard de Melong Ativo 85 / 83 40% 1 06.03.2027 -
Paul Mbong Floriana Ativo 99 / 102 40% 2 01.03.2027 -
Franklin Sasere Birkirkara Ativo 108 / 92 40% 4 26.02.2027 -
Kenan Dervišagić Floriana Ativo 87 / 96 40% 2 26.02.2027 -
Uroš Đuranović Sliema Wanderers Ativo 104 / 91 40% 4 23.02.2027 -
Hassane Boudina Gazelle Ativo 79 / 61 40% 2 22.02.2027 -
Kurt Abrahams Waasland-Beveren Ativo 120 / 110 40% 1 22.02.2027 -
Brian Babit Ativo 80 / 74 40% 1 18.02.2027 -
Diamanka Senghor Mosta Ativo 102 / 96 40% 1 14.02.2027 -
Máxuell Maia Gzira United Ativo 86 / 95 40% 1 10.02.2027 -
Ryder Matos Hibernians Ativo 91 / 100 40% 2 09.02.2027 -
Ousmane Biani Galactik Ativo 78 / 74 40% 1 06.02.2027 -
Marcelo Sliema Wanderers Ativo 97 / 83 40% 1 05.02.2027 -
Ahmed Khaled Al Gaish Ativo 102 / 105 40% 1 04.02.2027 -
Noah Mokhtari Stade Brestois Ativo 91 / 96 40% 2 03.02.2027 -
Miullen Hibernians Ativo 84 / 84 40% 1 02.02.2027 -
Azer Kozić Mosta Ativo 81 / 71 40% 1 17.01.2027 -
Tidiane Danioko Etoiles du Mande Ativo 77 / 80 55% 1 05.01.2027 -
Charles M'Mombwa Zabbar St. Patrick Ativo 83 / 99 40% 2 29.12.2026 -
Yaya Kerim Renaissance Ativo 85 / 67 40% 3 28.12.2026 -
Teddy Teuma Sliema Wanderers Ativo 120 / 141 40% 3 28.12.2026 Observar
Ethan Clavreul Stade Lavallois Ativo 114 / 104 40% 1 27.12.2026 -
Bruno Figueiredo Zabbar St. Patrick Ativo 82 / 95 40% 1 19.12.2026 -
Ali Diakité Hibernians Ativo 69 / 84 40% 2 18.12.2026 -
Brahim Goudja AS PSI Ativo 71 / 81 40% 4 16.12.2026 -
Shean Garlito Lokeren Ativo 94 / 80 40% 1 15.12.2026 -
Jean Deschamps Chamois Niortais Ativo 87 / 101 40% 2 14.12.2026 -
Bréhima Diassana US Bougouni Ativo 75 / 76 40% 1 14.12.2026 -
Abanga Mahamat Youssouf Galactik Ativo 61 / 70 40% 1 13.12.2026 -
Diogo Tavares Valletta Ativo 81 / 81 40% 1 13.12.2026 -
Shariff Musa Gor Mahia Ativo 95 / 100 40% 2 09.12.2026 Mais informações
Boubakar Dembaga Monaco Ativo 109 / 111 40% 2 08.12.2026 Mais informações
Hamza Asrir AS Police Ativo 77 / 92 40% 1 04.12.2026 -
Oriol Romeu Southampton Ativo 119 / 120 40% 2 03.12.2026 -
Kévin Hoggas Ativo 90 / 88 40% 2 03.12.2026 -
Makan Samabaly Djoliba Ativo 90 / 112 40% 1 29.11.2026 -
Makan Camara AS Bakaridjan Ativo 92 / 86 40% 1 29.11.2026 -
Mamoutou Berthé US Bougouba Ativo 80 / 101 40% 1 26.11.2026 Mais informações
Kevin Halabaku Hibernians Ativo 86 / 89 40% 1 26.11.2026 -
Bourama Diallo AS Bakaridjan Ativo 78 / 86 40% 1 24.11.2026 -
Raye Cissé Djoliba Ativo 97 / 112 40% 1 19.11.2026 -
Ishmael Addo Heart of Lions Ativo 76 / 91 40% 1 18.11.2026 -
Ronwen Phiri Black Aces Ativo 93 / 90 40% 1 18.11.2026 -
Roko Prša Valletta Ativo 99 / 98 40% 1 17.11.2026 -
Mouad El Fanis Hibernians Ativo 107 / 102 40% 1 16.11.2026 -
Arsene Mekila Gazelle Garoua Ativo 77 / 88 40% 1 15.11.2026 -
Tom Cairney Fulham Ativo 130 / 134 40% 1 15.11.2026 -
Michy Doku Mouscron Ativo 110 / 109 40% 2 12.11.2026 -
Ipalibo Jack Hamrun Spartans Ativo 94 / 98 40% 1 10.11.2026 -
Elhadj Koné Clermont Foot Ativo 78 / 103 40% 1 08.11.2026 -
Mathieu Deplagne Heidenheim Ativo 96 / 102 40% 1 07.11.2026 -
Alpha Onyango Gor Mahia Ativo 94 / 110 40% 2 24.10.2026 -
Tosin Olawale El-Kanemi Warriors Ativo 98 / 84 40% 1 22.10.2026 -
Tom Naylor Chesterfield Ativo 108 / 88 40% 1 21.10.2026 -
Mohamed Hamami Binga Ativo 98 / 80 40% 1 20.10.2026 -
Enock Wanyama APS Bomet Ativo 63 / 83 40% 1 16.10.2026 -
Bandile Shandu Orlando Pirates Ativo 110 / 114 40% 1 14.10.2026 -
Sebastian Ikekhai Sofapaka Ativo 69 / 68 40% 1 11.10.2026 -
Gino Caoki Nimes Ativo 89 / 96 40% 1 11.10.2026 -
Timothée Kolodziejczak Paris FC Ativo 112 / 113 40% 1 10.10.2026 -
Bruno Gomes Valletta Ativo 107 / 109 40% 1 08.10.2026 -
Wassim Dardake Toulouse FC Ativo 64 / 76 40% 1 26.09.2026 -
Ovella Ochieng Nairobi United Ativo 88 / 104 40% 1 25.09.2026 -
Julien Astic Clermont Foot Ativo 73 / 86 40% 1 25.09.2026 -
Timothée Dutot Olympique Lyonnais Ativo 80 / 96 40% 1 24.09.2026 -
Noah Mawete Kinsiona Waasland-Beveren Ativo 103 / 101 40% 1 22.09.2026 -
William Bénard Stade Lavallois Ativo 107 / 103 40% 1 21.09.2026 -
Joël-Emmanuel Coulibaly AS Nancy Ativo 96 / 103 40% 1 21.09.2026 -
Yoann Chauvin FC Nantes Ativo 72 / 112 40% 1 20.09.2026 -
Emiel Callens Club Brugge Ativo 85 / 102 40% 1 18.09.2026 -
Oscar Lenne RC Lens Ativo 103 / 102 40% 1 18.09.2026 -
Amine Boukamir Charleroi Ativo 89 / 91 40% 1 16.09.2026 -
Marco Ilaimaharitra Standard Liege Ativo 98 / 105 40% 2 15.09.2026 -
César De la Hoz Aston Villa Ativo 126 / 125 40% 1 14.09.2026 -
Erin Airhiavbere Valenciennes Ativo 71 / 100 40% 1 11.09.2026 -
Souleymane Coulibaly Real Bamako Ativo 89 / 95 40% 1 10.09.2026 -
Dani Carvajal Real Madrid Ativo 134 / 140 40% 1 10.09.2026 -
Lynnt Audoor Club Brugge Ativo 115 / 86 40% 1 09.09.2026 -
Harouna Djibirin Angers SCO Ativo 98 / 113 40% 1 07.09.2026 -
Hidde ter Avest Oxford United Ativo 128 / 105 40% 1 07.09.2026 -
Siny Guèye Paris FC Ativo 95 / 90 40% 1 25.08.2026 -
Achille Kouadio Afrique Foot Elite Ativo 83 / 82 51% 1 10.08.2026 -
Yanis Bastaraud Paris Saint-Germain Ativo 64 / 87 40% 1 10.08.2026 -